Terminal Aerodrome Forecast
Issued by NWS

Home | Current Version | Previous Version | Text Only | Print | Product List | Glossary On
Versions: 1 2 3 4 5 6 7 8 9 10 11 12 13 14 15 16 17
000
FTUS42 KTBW 042336
TAFPGD
TAF
KPGD 042336Z 0500/0524 24012KT P6SM VCTS SCT010CB BKN025 OVC050
      TEMPO 0500/0501 4SM SHRA BKN010
     FM050200 30010KT P6SM SCT008 SCT050
      TEMPO 0502/0504 BKN008
     FM050600 32008KT P6SM SCT050
     FM051500 30015G25KT P6SM SCT050=

USA.gov is the U.S. government's official web portal to all federal, state and local government web resources and services.